sensor_id;sensor_type;location;lat;lon;timestamp;P1;durP1;ratioP1;P2;durP2;ratioP2
20306;SDS011;10312;52.434;13.206;2023-06-22T00:01:21;17.35;;;13.80;;
20306;SDS011;10312;52.434;13.206;2023-06-22T00:03:49;16.50;;;14.35;;
20306;SDS011;10312;52.434;13.206;2023-06-22T00:06:16;17.67;;;14.27;;
20306;SDS011;10312;52.434;13.206;2023-06-22T00:08:43;17.80;;;13.93;;
20306;SDS011;10312;52.434;13.206;2023-06-22T00:11:10;17.17;;;13.57;;
20306;SDS011;10312;52.434;13.206;2023-06-22T00:13:37;16.92;;;13.30;;
20306;SDS011;10312;52.434;13.206;2023-06-22T00:16:04;16.45;;;13.05;;
20306;SDS011;10312;52.434;13.206;2023-06-22T00:18:31;17.70;;;13.32;;
20306;SDS011;10312;52.434;13.206;2023-06-22T00:20:58;17.77;;;13.60;;
20306;SDS011;10312;52.434;13.206;2023-06-22T00:23:25;14.85;;;12.90;;
20306;SDS011;10312;52.434;13.206;2023-06-22T00:25:52;17.55;;;14.50;;
20306;SDS011;10312;52.434;13.206;2023-06-22T00:28:19;16.42;;;13.30;;
20306;SDS011;10312;52.434;13.206;2023-06-22T00:30:48;15.57;;;13.82;;
20306;SDS011;10312;52.434;13.206;2023-06-22T00:33:17;16.48;;;13.68;;
20306;SDS011;10312;52.434;13.206;2023-06-22T00:35:44;16.83;;;13.45;;
20306;SDS011;10312;52.434;13.206;2023-06-22T00:38:11;17.25;;;13.52;;
20306;SDS011;10312;52.434;13.206;2023-06-22T00:40:40;15.20;;;12.95;;
20306;SDS011;10312;52.434;13.206;2023-06-22T00:43:07;16.70;;;12.75;;
20306;SDS011;10312;52.434;13.206;2023-06-22T00:45:34;15.32;;;13.25;;
20306;SDS011;10312;52.434;13.206;2023-06-22T00:48:01;16.33;;;12.95;;
20306;SDS011;10312;52.434;13.206;2023-06-22T00:50:30;17.67;;;12.30;;
20306;SDS011;10312;52.434;13.206;2023-06-22T00:53:05;14.35;;;12.25;;
20306;SDS011;10312;52.434;13.206;2023-06-22T00:55:38;14.05;;;12.35;;
20306;SDS011;10312;52.434;13.206;2023-06-22T00:58:10;14.82;;;13.00;;
20306;SDS011;10312;52.434;13.206;2023-06-22T01:00:39;15.23;;;12.40;;
20306;SDS011;10312;52.434;13.206;2023-06-22T01:03:07;14.43;;;12.40;;
20306;SDS011;10312;52.434;13.206;2023-06-22T01:05:38;14.80;;;12.38;;
20306;SDS011;10312;52.434;13.206;2023-06-22T01:16:03;13.77;;;11.90;;
20306;SDS011;10312;52.434;13.206;2023-06-22T01:18:33;18.52;;;11.70;;
20306;SDS011;10312;52.434;13.206;2023-06-22T01:21:06;13.98;;;11.63;;
20306;SDS011;10312;52.434;13.206;2023-06-22T01:26:19;13.18;;;11.68;;
20306;SDS011;10312;52.434;13.206;2023-06-22T01:28:50;14.60;;;12.20;;
20306;SDS011;10312;52.434;13.206;2023-06-22T01:31:19;13.48;;;11.77;;
20306;SDS011;10312;52.434;13.206;2023-06-22T01:33:51;14.43;;;11.98;;
20306;SDS011;10312;52.434;13.206;2023-06-22T01:36:20;15.23;;;11.70;;
20306;SDS011;10312;52.434;13.206;2023-06-22T01:38:48;15.75;;;11.02;;
20306;SDS011;10312;52.434;13.206;2023-06-22T01:41:21;13.70;;;11.15;;
20306;SDS011;10312;52.434;13.206;2023-06-22T01:43:50;17.38;;;11.43;;
20306;SDS011;10312;52.434;13.206;2023-06-22T01:46:19;13.98;;;11.55;;
20306;SDS011;10312;52.434;13.206;2023-06-22T01:48:46;14.73;;;11.55;;
20306;SDS011;10312;52.434;13.206;2023-06-22T01:51:14;14.20;;;11.45;;
20306;SDS011;10312;52.434;13.206;2023-06-22T01:53:42;17.55;;;12.27;;
20306;SDS011;10312;52.434;13.206;2023-06-22T01:56:09;16.10;;;11.60;;
20306;SDS011;10312;52.434;13.206;2023-06-22T01:58:36;14.65;;;12.25;;
20306;SDS011;10312;52.434;13.206;2023-06-22T02:01:12;14.30;;;11.80;;
20306;SDS011;10312;52.434;13.206;2023-06-22T02:03:41;14.45;;;11.80;;
20306;SDS011;10312;52.434;13.206;2023-06-22T02:06:15;14.35;;;11.48;;
20306;SDS011;10312;52.434;13.206;2023-06-22T02:08:49;14.80;;;11.60;;
20306;SDS011;10312;52.434;13.206;2023-06-22T02:11:20;15.10;;;11.60;;
20306;SDS011;10312;52.434;13.206;2023-06-22T02:13:49;13.60;;;12.20;;
20306;SDS011;10312;52.434;13.206;2023-06-22T02:16:16;12.18;;;10.60;;
20306;SDS011;10312;52.434;13.206;2023-06-22T02:18:47;15.60;;;12.23;;
20306;SDS011;10312;52.434;13.206;2023-06-22T02:21:18;12.57;;;11.13;;
20306;SDS011;10312;52.434;13.206;2023-06-22T02:23:46;13.65;;;11.25;;
20306;SDS011;10312;52.434;13.206;2023-06-22T02:26:17;13.70;;;11.43;;
20306;SDS011;10312;52.434;13.206;2023-06-22T02:28:44;14.82;;;11.68;;
20306;SDS011;10312;52.434;13.206;2023-06-22T02:31:12;16.58;;;12.38;;
20306;SDS011;10312;52.434;13.206;2023-06-22T02:33:39;14.00;;;11.52;;
20306;SDS011;10312;52.434;13.206;2023-06-22T02:36:06;13.30;;;11.68;;
20306;SDS011;10312;52.434;13.206;2023-06-22T02:38:40;15.48;;;12.40;;
20306;SDS011;10312;52.434;13.206;2023-06-22T02:41:15;13.85;;;11.43;;
20306;SDS011;10312;52.434;13.206;2023-06-22T02:43:45;21.85;;;11.98;;
20306;SDS011;10312;52.434;13.206;2023-06-22T02:46:12;13.95;;;11.68;;
20306;SDS011;10312;52.434;13.206;2023-06-22T02:48:40;18.85;;;12.52;;
20306;SDS011;10312;52.434;13.206;2023-06-22T02:51:08;12.68;;;11.35;;
20306;SDS011;10312;52.434;13.206;2023-06-22T02:53:36;12.52;;;11.23;;
20306;SDS011;10312;52.434;13.206;2023-06-22T02:56:03;13.85;;;11.27;;
20306;SDS011;10312;52.434;13.206;2023-06-22T02:58:34;13.65;;;11.50;;
20306;SDS011;10312;52.434;13.206;2023-06-22T03:01:08;14.70;;;11.95;;
20306;SDS011;10312;52.434;13.206;2023-06-22T03:03:36;13.38;;;11.50;;
20306;SDS011;10312;52.434;13.206;2023-06-22T03:06:04;15.25;;;11.52;;
20306;SDS011;10312;52.434;13.206;2023-06-22T03:08:30;14.52;;;12.05;;
20306;SDS011;10312;52.434;13.206;2023-06-22T03:10:57;12.88;;;11.18;;
20306;SDS011;10312;52.434;13.206;2023-06-22T03:13:24;11.93;;;10.07;;
20306;SDS011;10312;52.434;13.206;2023-06-22T03:15:51;13.77;;;11.27;;
20306;SDS011;10312;52.434;13.206;2023-06-22T03:18:19;13.52;;;11.60;;
20306;SDS011;10312;52.434;13.206;2023-06-22T03:20:46;12.50;;;11.20;;
20306;SDS011;10312;52.434;13.206;2023-06-22T03:23:12;14.13;;;11.60;;
20306;SDS011;10312;52.434;13.206;2023-06-22T03:25:40;15.23;;;11.50;;
20306;SDS011;10312;52.434;13.206;2023-06-22T03:28:07;15.55;;;11.73;;
20306;SDS011;10312;52.434;13.206;2023-06-22T03:30:34;13.88;;;11.27;;
20306;SDS011;10312;52.434;13.206;2023-06-22T03:33:01;12.43;;;11.10;;
20306;SDS011;10312;52.434;13.206;2023-06-22T03:35:28;14.23;;;11.85;;
20306;SDS011;10312;52.434;13.206;2023-06-22T03:37:55;16.13;;;12.65;;
20306;SDS011;10312;52.434;13.206;2023-06-22T03:40:22;14.32;;;12.43;;
20306;SDS011;10312;52.434;13.206;2023-06-22T03:42:52;17.52;;;12.35;;
20306;SDS011;10312;52.434;13.206;2023-06-22T03:45:19;12.82;;;11.40;;
20306;SDS011;10312;52.434;13.206;2023-06-22T03:47:46;14.25;;;12.13;;
20306;SDS011;10312;52.434;13.206;2023-06-22T03:50:14;21.40;;;11.52;;
20306;SDS011;10312;52.434;13.206;2023-06-22T03:52:41;13.82;;;11.32;;
20306;SDS011;10312;52.434;13.206;2023-06-22T03:55:08;13.40;;;11.50;;
20306;SDS011;10312;52.434;13.206;2023-06-22T03:57:35;13.52;;;11.18;;
20306;SDS011;10312;52.434;13.206;2023-06-22T04:00:02;14.52;;;12.45;;
20306;SDS011;10312;52.434;13.206;2023-06-22T04:02:37;13.70;;;11.95;;
20306;SDS011;10312;52.434;13.206;2023-06-22T04:05:04;13.85;;;12.00;;
20306;SDS011;10312;52.434;13.206;2023-06-22T04:07:31;13.82;;;12.35;;
20306;SDS011;10312;52.434;13.206;2023-06-22T04:09:58;15.23;;;11.55;;
20306;SDS011;10312;52.434;13.206;2023-06-22T04:12:28;13.88;;;12.00;;
20306;SDS011;10312;52.434;13.206;2023-06-22T04:14:55;14.15;;;11.20;;
20306;SDS011;10312;52.434;13.206;2023-06-22T04:17:22;12.65;;;11.32;;
20306;SDS011;10312;52.434;13.206;2023-06-22T04:19:51;15.13;;;11.85;;
20306;SDS011;10312;52.434;13.206;2023-06-22T04:22:18;13.73;;;11.63;;
20306;SDS011;10312;52.434;13.206;2023-06-22T04:24:45;12.48;;;11.18;;
20306;SDS011;10312;52.434;13.206;2023-06-22T04:27:12;13.32;;;11.32;;
20306;SDS011;10312;52.434;13.206;2023-06-22T04:29:41;12.90;;;11.30;;
20306;SDS011;10312;52.434;13.206;2023-06-22T04:32:15;13.65;;;10.27;;
20306;SDS011;10312;52.434;13.206;2023-06-22T04:34:42;11.93;;;10.52;;
20306;SDS011;10312;52.434;13.206;2023-06-22T04:37:09;12.00;;;9.70;;
20306;SDS011;10312;52.434;13.206;2023-06-22T04:39:42;11.32;;;9.52;;
20306;SDS011;10312;52.434;13.206;2023-06-22T04:42:09;13.57;;;9.38;;
20306;SDS011;10312;52.434;13.206;2023-06-22T04:44:36;11.25;;;8.93;;
20306;SDS011;10312;52.434;13.206;2023-06-22T04:47:03;11.55;;;9.25;;
20306;SDS011;10312;52.434;13.206;2023-06-22T04:49:33;11.52;;;9.30;;
20306;SDS011;10312;52.434;13.206;2023-06-22T04:52:00;9.95;;;8.75;;
20306;SDS011;10312;52.434;13.206;2023-06-22T04:54:31;10.95;;;9.27;;
20306;SDS011;10312;52.434;13.206;2023-06-22T04:57:00;12.50;;;9.52;;
20306;SDS011;10312;52.434;13.206;2023-06-22T04:59:27;13.65;;;9.15;;
20306;SDS011;10312;52.434;13.206;2023-06-22T05:02:01;8.82;;;7.88;;
20306;SDS011;10312;52.434;13.206;2023-06-22T05:04:29;10.50;;;8.38;;
20306;SDS011;10312;52.434;13.206;2023-06-22T05:06:58;10.02;;;8.32;;
20306;SDS011;10312;52.434;13.206;2023-06-22T05:09:27;10.50;;;8.45;;
20306;SDS011;10312;52.434;13.206;2023-06-22T05:11:54;12.73;;;8.10;;
20306;SDS011;10312;52.434;13.206;2023-06-22T05:14:20;12.13;;;7.68;;
20306;SDS011;10312;52.434;13.206;2023-06-22T05:16:48;9.57;;;8.02;;
20306;SDS011;10312;52.434;13.206;2023-06-22T05:19:15;11.18;;;7.60;;
20306;SDS011;10312;52.434;13.206;2023-06-22T05:21:42;9.23;;;7.07;;
20306;SDS011;10312;52.434;13.206;2023-06-22T05:24:08;10.55;;;6.95;;
20306;SDS011;10312;52.434;13.206;2023-06-22T05:26:36;9.77;;;6.95;;
20306;SDS011;10312;52.434;13.206;2023-06-22T05:29:03;10.27;;;6.45;;
20306;SDS011;10312;52.434;13.206;2023-06-22T05:31:31;9.57;;;6.60;;
20306;SDS011;10312;52.434;13.206;2023-06-22T05:33:58;9.45;;;6.03;;
20306;SDS011;10312;52.434;13.206;2023-06-22T05:36:26;6.10;;;5.50;;
20306;SDS011;10312;52.434;13.206;2023-06-22T05:38:53;6.72;;;5.22;;
20306;SDS011;10312;52.434;13.206;2023-06-22T05:41:19;7.95;;;5.93;;
20306;SDS011;10312;52.434;13.206;2023-06-22T05:43:46;7.22;;;5.82;;
20306;SDS011;10312;52.434;13.206;2023-06-22T05:46:13;6.90;;;5.50;;
20306;SDS011;10312;52.434;13.206;2023-06-22T05:48:40;9.82;;;5.75;;
20306;SDS011;10312;52.434;13.206;2023-06-22T05:51:07;7.43;;;5.97;;
20306;SDS011;10312;52.434;13.206;2023-06-22T05:53:34;7.47;;;5.80;;
20306;SDS011;10312;52.434;13.206;2023-06-22T05:56:01;8.63;;;5.80;;
20306;SDS011;10312;52.434;13.206;2023-06-22T05:58:28;7.85;;;5.10;;
20306;SDS011;10312;52.434;13.206;2023-06-22T06:00:55;8.52;;;5.63;;
20306;SDS011;10312;52.434;13.206;2023-06-22T06:03:21;7.93;;;5.30;;
20306;SDS011;10312;52.434;13.206;2023-06-22T06:05:49;7.18;;;5.30;;
20306;SDS011;10312;52.434;13.206;2023-06-22T06:08:16;6.50;;;4.90;;
20306;SDS011;10312;52.434;13.206;2023-06-22T06:10:43;8.88;;;5.22;;
20306;SDS011;10312;52.434;13.206;2023-06-22T06:13:10;6.95;;;5.50;;
20306;SDS011;10312;52.434;13.206;2023-06-22T06:15:37;7.15;;;5.00;;
20306;SDS011;10312;52.434;13.206;2023-06-22T06:18:04;10.25;;;5.80;;
20306;SDS011;10312;52.434;13.206;2023-06-22T06:20:33;5.85;;;4.50;;
20306;SDS011;10312;52.434;13.206;2023-06-22T06:23:00;8.00;;;4.63;;
20306;SDS011;10312;52.434;13.206;2023-06-22T06:25:27;6.68;;;4.95;;
20306;SDS011;10312;52.434;13.206;2023-06-22T06:27:54;7.25;;;4.57;;
20306;SDS011;10312;52.434;13.206;2023-06-22T06:30:21;10.25;;;4.82;;
20306;SDS011;10312;52.434;13.206;2023-06-22T06:32:49;8.88;;;4.88;;
20306;SDS011;10312;52.434;13.206;2023-06-22T06:35:16;5.88;;;4.43;;
20306;SDS011;10312;52.434;13.206;2023-06-22T06:37:44;5.40;;;4.45;;
20306;SDS011;10312;52.434;13.206;2023-06-22T06:40:12;5.50;;;4.03;;
20306;SDS011;10312;52.434;13.206;2023-06-22T06:42:44;6.65;;;4.00;;
20306;SDS011;10312;52.434;13.206;2023-06-22T06:45:12;5.43;;;3.95;;
20306;SDS011;10312;52.434;13.206;2023-06-22T06:47:41;5.57;;;4.07;;
20306;SDS011;10312;52.434;13.206;2023-06-22T06:50:09;5.15;;;3.38;;
20306;SDS011;10312;52.434;13.206;2023-06-22T06:52:36;6.25;;;3.50;;
20306;SDS011;10312;52.434;13.206;2023-06-22T06:55:04;6.25;;;4.03;;
20306;SDS011;10312;52.434;13.206;2023-06-22T06:57:35;4.82;;;3.20;;
20306;SDS011;10312;52.434;13.206;2023-06-22T07:00:08;6.32;;;3.40;;
20306;SDS011;10312;52.434;13.206;2023-06-22T07:02:45;4.93;;;3.38;;
20306;SDS011;10312;52.434;13.206;2023-06-22T07:05:15;4.93;;;2.85;;
20306;SDS011;10312;52.434;13.206;2023-06-22T07:07:42;4.93;;;2.80;;
20306;SDS011;10312;52.434;13.206;2023-06-22T07:10:09;4.00;;;2.70;;
20306;SDS011;10312;52.434;13.206;2023-06-22T07:12:36;6.55;;;3.10;;
20306;SDS011;10312;52.434;13.206;2023-06-22T07:15:04;4.00;;;2.75;;
20306;SDS011;10312;52.434;13.206;2023-06-22T07:17:38;7.07;;;2.30;;
20306;SDS011;10312;52.434;13.206;2023-06-22T07:20:08;4.75;;;2.95;;
20306;SDS011;10312;52.434;13.206;2023-06-22T07:22:41;4.22;;;2.58;;
20306;SDS011;10312;52.434;13.206;2023-06-22T07:25:09;6.57;;;3.20;;
20306;SDS011;10312;52.434;13.206;2023-06-22T07:27:37;6.70;;;2.78;;
20306;SDS011;10312;52.434;13.206;2023-06-22T07:30:06;5.50;;;2.33;;
20306;SDS011;10312;52.434;13.206;2023-06-22T07:32:33;3.58;;;2.70;;
20306;SDS011;10312;52.434;13.206;2023-06-22T07:35:00;5.07;;;2.45;;
20306;SDS011;10312;52.434;13.206;2023-06-22T07:37:28;8.40;;;2.63;;
20306;SDS011;10312;52.434;13.206;2023-06-22T07:39:55;4.80;;;2.45;;
20306;SDS011;10312;52.434;13.206;2023-06-22T07:42:26;4.80;;;2.65;;
20306;SDS011;10312;52.434;13.206;2023-06-22T07:44:53;3.55;;;2.58;;
20306;SDS011;10312;52.434;13.206;2023-06-22T07:47:21;4.45;;;2.70;;
20306;SDS011;10312;52.434;13.206;2023-06-22T07:49:51;3.60;;;2.30;;
20306;SDS011;10312;52.434;13.206;2023-06-22T07:52:21;4.38;;;2.63;;
20306;SDS011;10312;52.434;13.206;2023-06-22T07:54:48;4.95;;;2.65;;
20306;SDS011;10312;52.434;13.206;2023-06-22T07:57:15;4.45;;;2.65;;
20306;SDS011;10312;52.434;13.206;2023-06-22T07:59:42;3.88;;;2.67;;
20306;SDS011;10312;52.434;13.206;2023-06-22T08:02:08;5.22;;;2.28;;
20306;SDS011;10312;52.434;13.206;2023-06-22T08:04:36;5.40;;;2.38;;
20306;SDS011;10312;52.434;13.206;2023-06-22T08:07:03;5.28;;;2.40;;
20306;SDS011;10312;52.434;13.206;2023-06-22T08:09:31;3.30;;;2.30;;
20306;SDS011;10312;52.434;13.206;2023-06-22T08:12:02;4.82;;;2.70;;
20306;SDS011;10312;52.434;13.206;2023-06-22T08:14:29;4.55;;;2.63;;
20306;SDS011;10312;52.434;13.206;2023-06-22T08:16:56;4.90;;;2.40;;
20306;SDS011;10312;52.434;13.206;2023-06-22T08:19:23;3.83;;;2.55;;
20306;SDS011;10312;52.434;13.206;2023-06-22T08:21:50;3.70;;;2.63;;
20306;SDS011;10312;52.434;13.206;2023-06-22T08:24:17;8.95;;;2.67;;
20306;SDS011;10312;52.434;13.206;2023-06-22T08:26:44;3.05;;;2.35;;
20306;SDS011;10312;52.434;13.206;2023-06-22T08:29:14;3.58;;;2.40;;
20306;SDS011;10312;52.434;13.206;2023-06-22T08:31:41;4.93;;;2.40;;
20306;SDS011;10312;52.434;13.206;2023-06-22T08:34:08;3.92;;;2.20;;
20306;SDS011;10312;52.434;13.206;2023-06-22T08:36:35;3.80;;;2.55;;
20306;SDS011;10312;52.434;13.206;2023-06-22T08:39:10;4.20;;;2.58;;
20306;SDS011;10312;52.434;13.206;2023-06-22T08:41:38;4.97;;;2.70;;
20306;SDS011;10312;52.434;13.206;2023-06-22T08:44:06;5.70;;;2.58;;
20306;SDS011;10312;52.434;13.206;2023-06-22T08:46:33;6.07;;;2.80;;
20306;SDS011;10312;52.434;13.206;2023-06-22T08:49:00;4.75;;;2.70;;
20306;SDS011;10312;52.434;13.206;2023-06-22T08:51:27;7.00;;;3.78;;
20306;SDS011;10312;52.434;13.206;2023-06-22T08:53:55;4.82;;;2.80;;
20306;SDS011;10312;52.434;13.206;2023-06-22T08:56:22;3.63;;;2.65;;
20306;SDS011;10312;52.434;13.206;2023-06-22T08:58:49;3.15;;;2.45;;
20306;SDS011;10312;52.434;13.206;2023-06-22T09:01:16;3.55;;;2.60;;
20306;SDS011;10312;52.434;13.206;2023-06-22T09:03:43;6.65;;;2.60;;
20306;SDS011;10312;52.434;13.206;2023-06-22T09:06:10;3.95;;;2.70;;
20306;SDS011;10312;52.434;13.206;2023-06-22T09:08:37;3.60;;;2.65;;
20306;SDS011;10312;52.434;13.206;2023-06-22T09:11:04;5.30;;;2.88;;
20306;SDS011;10312;52.434;13.206;2023-06-22T09:13:32;4.22;;;2.78;;
20306;SDS011;10312;52.434;13.206;2023-06-22T09:15:59;4.65;;;2.40;;
20306;SDS011;10312;52.434;13.206;2023-06-22T09:18:26;4.65;;;2.28;;
20306;SDS011;10312;52.434;13.206;2023-06-22T09:20:53;2.80;;;2.00;;
20306;SDS011;10312;52.434;13.206;2023-06-22T09:23:20;4.68;;;2.60;;
20306;SDS011;10312;52.434;13.206;2023-06-22T09:25:47;4.75;;;2.45;;
20306;SDS011;10312;52.434;13.206;2023-06-22T09:28:14;5.63;;;2.60;;
20306;SDS011;10312;52.434;13.206;2023-06-22T09:30:44;3.65;;;2.50;;
20306;SDS011;10312;52.434;13.206;2023-06-22T09:33:12;4.88;;;3.05;;
20306;SDS011;10312;52.434;13.206;2023-06-22T09:35:39;6.05;;;2.72;;
20306;SDS011;10312;52.434;13.206;2023-06-22T09:38:06;4.88;;;2.83;;
20306;SDS011;10312;52.434;13.206;2023-06-22T09:40:35;4.32;;;2.53;;
20306;SDS011;10312;52.434;13.206;2023-06-22T09:43:06;4.13;;;2.78;;
20306;SDS011;10312;52.434;13.206;2023-06-22T09:45:33;4.65;;;2.90;;
20306;SDS011;10312;52.434;13.206;2023-06-22T09:48:00;5.88;;;2.80;;
20306;SDS011;10312;52.434;13.206;2023-06-22T09:50:27;3.50;;;2.58;;
20306;SDS011;10312;52.434;13.206;2023-06-22T09:52:55;5.22;;;3.00;;
20306;SDS011;10312;52.434;13.206;2023-06-22T09:55:22;3.92;;;3.17;;
20306;SDS011;10312;52.434;13.206;2023-06-22T09:57:49;5.10;;;3.42;;
20306;SDS011;10312;52.434;13.206;2023-06-22T10:00:16;7.13;;;3.05;;
20306;SDS011;10312;52.434;13.206;2023-06-22T10:02:44;4.43;;;2.90;;
20306;SDS011;10312;52.434;13.206;2023-06-22T10:05:11;4.72;;;3.00;;
20306;SDS011;10312;52.434;13.206;2023-06-22T10:07:39;5.20;;;2.97;;
20306;SDS011;10312;52.434;13.206;2023-06-22T10:10:12;4.63;;;2.78;;
20306;SDS011;10312;52.434;13.206;2023-06-22T10:12:41;5.35;;;2.83;;
20306;SDS011;10312;52.434;13.206;2023-06-22T10:15:10;3.95;;;2.78;;
20306;SDS011;10312;52.434;13.206;2023-06-22T10:17:37;4.43;;;2.72;;
20306;SDS011;10312;52.434;13.206;2023-06-22T10:20:07;4.45;;;2.72;;
20306;SDS011;10312;52.434;13.206;2023-06-22T10:22:42;4.85;;;2.83;;
20306;SDS011;10312;52.434;13.206;2023-06-22T10:25:11;6.63;;;2.70;;
20306;SDS011;10312;52.434;13.206;2023-06-22T10:27:38;4.28;;;2.83;;
20306;SDS011;10312;52.434;13.206;2023-06-22T10:30:08;4.85;;;3.13;;
20306;SDS011;10312;52.434;13.206;2023-06-22T10:32:37;4.70;;;2.95;;
20306;SDS011;10312;52.434;13.206;2023-06-22T10:35:04;4.53;;;2.90;;
20306;SDS011;10312;52.434;13.206;2023-06-22T10:37:31;4.72;;;3.08;;
20306;SDS011;10312;52.434;13.206;2023-06-22T10:39:58;7.00;;;2.63;;
20306;SDS011;10312;52.434;13.206;2023-06-22T10:42:25;6.60;;;2.67;;
20306;SDS011;10312;52.434;13.206;2023-06-22T10:44:52;4.72;;;2.88;;
20306;SDS011;10312;52.434;13.206;2023-06-22T10:47:19;5.22;;;2.80;;
20306;SDS011;10312;52.434;13.206;2023-06-22T10:49:46;7.90;;;2.83;;
20306;SDS011;10312;52.434;13.206;2023-06-22T10:52:13;6.28;;;3.08;;
20306;SDS011;10312;52.434;13.206;2023-06-22T10:54:40;4.25;;;3.20;;
20306;SDS011;10312;52.434;13.206;2023-06-22T10:57:07;4.47;;;2.92;;
20306;SDS011;10312;52.434;13.206;2023-06-22T10:59:34;5.10;;;2.75;;
20306;SDS011;10312;52.434;13.206;2023-06-22T11:02:01;4.57;;;3.40;;
20306;SDS011;10312;52.434;13.206;2023-06-22T11:04:29;5.85;;;3.20;;
20306;SDS011;10312;52.434;13.206;2023-06-22T11:06:56;4.22;;;3.28;;
20306;SDS011;10312;52.434;13.206;2023-06-22T11:09:23;4.05;;;3.00;;
20306;SDS011;10312;52.434;13.206;2023-06-22T11:11:55;5.43;;;3.30;;
20306;SDS011;10312;52.434;13.206;2023-06-22T11:14:22;4.47;;;3.10;;
20306;SDS011;10312;52.434;13.206;2023-06-22T11:16:50;5.95;;;2.97;;
20306;SDS011;10312;52.434;13.206;2023-06-22T11:19:17;5.03;;;3.17;;
20306;SDS011;10312;52.434;13.206;2023-06-22T11:21:44;4.15;;;3.03;;
20306;SDS011;10312;52.434;13.206;2023-06-22T11:24:11;3.75;;;2.67;;
20306;SDS011;10312;52.434;13.206;2023-06-22T11:26:38;4.07;;;3.00;;
20306;SDS011;10312;52.434;13.206;2023-06-22T11:29:05;6.50;;;2.85;;
20306;SDS011;10312;52.434;13.206;2023-06-22T11:31:34;4.25;;;2.75;;
20306;SDS011;10312;52.434;13.206;2023-06-22T11:34:01;4.32;;;2.85;;
20306;SDS011;10312;52.434;13.206;2023-06-22T11:36:28;7.60;;;3.10;;
20306;SDS011;10312;52.434;13.206;2023-06-22T11:38:56;3.05;;;2.75;;
20306;SDS011;10312;52.434;13.206;2023-06-22T11:41:23;5.18;;;2.53;;
20306;SDS011;10312;52.434;13.206;2023-06-22T11:43:50;4.95;;;3.00;;
20306;SDS011;10312;52.434;13.206;2023-06-22T11:46:17;6.15;;;3.13;;
20306;SDS011;10312;52.434;13.206;2023-06-22T11:48:44;4.55;;;3.20;;
20306;SDS011;10312;52.434;13.206;2023-06-22T11:51:15;7.30;;;3.05;;
20306;SDS011;10312;52.434;13.206;2023-06-22T11:53:42;3.80;;;3.00;;
20306;SDS011;10312;52.434;13.206;2023-06-22T11:56:09;3.78;;;2.80;;
20306;SDS011;10312;52.434;13.206;2023-06-22T11:58:36;4.18;;;2.83;;
20306;SDS011;10312;52.434;13.206;2023-06-22T12:01:04;4.00;;;3.40;;
20306;SDS011;10312;52.434;13.206;2023-06-22T12:03:31;4.65;;;3.13;;
20306;SDS011;10312;52.434;13.206;2023-06-22T12:05:59;6.47;;;3.53;;
20306;SDS011;10312;52.434;13.206;2023-06-22T12:08:26;6.80;;;3.35;;
20306;SDS011;10312;52.434;13.206;2023-06-22T12:10:53;3.88;;;3.28;;
20306;SDS011;10312;52.434;13.206;2023-06-22T12:13:21;4.93;;;3.55;;
20306;SDS011;10312;52.434;13.206;2023-06-22T12:15:48;3.85;;;3.30;;
20306;SDS011;10312;52.434;13.206;2023-06-22T12:18:15;5.97;;;3.35;;
20306;SDS011;10312;52.434;13.206;2023-06-22T12:20:42;4.60;;;3.28;;
20306;SDS011;10312;52.434;13.206;2023-06-22T12:23:09;4.45;;;3.17;;
20306;SDS011;10312;52.434;13.206;2023-06-22T12:25:36;6.38;;;3.65;;
20306;SDS011;10312;52.434;13.206;2023-06-22T12:28:03;4.30;;;3.25;;
20306;SDS011;10312;52.434;13.206;2023-06-22T12:30:32;5.40;;;3.85;;
20306;SDS011;10312;52.434;13.206;2023-06-22T12:33:00;3.85;;;3.20;;
20306;SDS011;10312;52.434;13.206;2023-06-22T12:35:27;4.22;;;3.00;;
20306;SDS011;10312;52.434;13.206;2023-06-22T12:37:54;5.43;;;3.75;;
20306;SDS011;10312;52.434;13.206;2023-06-22T12:40:21;4.63;;;3.22;;
20306;SDS011;10312;52.434;13.206;2023-06-22T12:42:48;4.72;;;3.38;;
20306;SDS011;10312;52.434;13.206;2023-06-22T12:45:16;4.25;;;2.97;;
20306;SDS011;10312;52.434;13.206;2023-06-22T12:47:46;5.35;;;3.00;;
20306;SDS011;10312;52.434;13.206;2023-06-22T12:50:13;5.40;;;3.63;;
20306;SDS011;10312;52.434;13.206;2023-06-22T12:52:39;4.15;;;3.40;;
20306;SDS011;10312;52.434;13.206;2023-06-22T12:55:07;3.83;;;3.20;;
20306;SDS011;10312;52.434;13.206;2023-06-22T12:57:34;4.80;;;3.25;;
20306;SDS011;10312;52.434;13.206;2023-06-22T13:00:01;3.17;;;2.67;;
20306;SDS011;10312;52.434;13.206;2023-06-22T13:02:30;3.55;;;3.25;;
20306;SDS011;10312;52.434;13.206;2023-06-22T13:04:57;5.18;;;3.20;;
20306;SDS011;10312;52.434;13.206;2023-06-22T13:07:24;4.70;;;3.33;;
20306;SDS011;10312;52.434;13.206;2023-06-22T13:09:52;5.18;;;3.08;;
20306;SDS011;10312;52.434;13.206;2023-06-22T13:12:22;4.28;;;3.42;;
20306;SDS011;10312;52.434;13.206;2023-06-22T13:14:49;4.30;;;3.40;;
20306;SDS011;10312;52.434;13.206;2023-06-22T13:17:16;6.85;;;3.55;;
20306;SDS011;10312;52.434;13.206;2023-06-22T13:19:43;3.83;;;3.10;;
20306;SDS011;10312;52.434;13.206;2023-06-22T13:24:57;4.07;;;3.10;;
20306;SDS011;10312;52.434;13.206;2023-06-22T13:27:25;4.43;;;3.40;;
20306;SDS011;10312;52.434;13.206;2023-06-22T13:29:52;4.22;;;3.38;;
20306;SDS011;10312;52.434;13.206;2023-06-22T13:32:19;3.97;;;3.20;;
20306;SDS011;10312;52.434;13.206;2023-06-22T13:34:46;5.10;;;3.60;;
20306;SDS011;10312;52.434;13.206;2023-06-22T13:37:13;4.82;;;3.72;;
20306;SDS011;10312;52.434;13.206;2023-06-22T13:39:40;6.18;;;3.85;;
20306;SDS011;10312;52.434;13.206;2023-06-22T13:42:07;4.78;;;3.63;;
20306;SDS011;10312;52.434;13.206;2023-06-22T13:44:35;5.25;;;2.90;;
20306;SDS011;10312;52.434;13.206;2023-06-22T13:47:02;4.97;;;3.63;;
20306;SDS011;10312;52.434;13.206;2023-06-22T13:49:28;5.30;;;3.30;;
20306;SDS011;10312;52.434;13.206;2023-06-22T13:51:55;4.90;;;3.55;;
20306;SDS011;10312;52.434;13.206;2023-06-22T13:54:22;4.00;;;3.25;;
20306;SDS011;10312;52.434;13.206;2023-06-22T13:56:55;4.47;;;3.70;;
20306;SDS011;10312;52.434;13.206;2023-06-22T13:59:22;3.90;;;3.50;;
20306;SDS011;10312;52.434;13.206;2023-06-22T14:01:49;5.07;;;3.50;;
20306;SDS011;10312;52.434;13.206;2023-06-22T14:04:16;4.68;;;3.60;;
20306;SDS011;10312;52.434;13.206;2023-06-22T14:06:43;4.28;;;3.55;;
20306;SDS011;10312;52.434;13.206;2023-06-22T14:09:10;4.47;;;3.67;;
20306;SDS011;10312;52.434;13.206;2023-06-22T14:11:37;4.32;;;3.50;;
20306;SDS011;10312;52.434;13.206;2023-06-22T14:14:04;5.63;;;3.80;;
20306;SDS011;10312;52.434;13.206;2023-06-22T14:16:31;5.97;;;3.72;;
20306;SDS011;10312;52.434;13.206;2023-06-22T14:18:58;5.15;;;3.72;;
20306;SDS011;10312;52.434;13.206;2023-06-22T14:21:25;4.20;;;3.80;;
20306;SDS011;10312;52.434;13.206;2023-06-22T14:23:53;5.45;;;3.80;;
20306;SDS011;10312;52.434;13.206;2023-06-22T14:26:20;5.95;;;4.45;;
20306;SDS011;10312;52.434;13.206;2023-06-22T14:28:47;4.40;;;3.72;;
20306;SDS011;10312;52.434;13.206;2023-06-22T14:31:15;5.70;;;4.07;;
20306;SDS011;10312;52.434;13.206;2023-06-22T14:33:46;4.47;;;4.03;;
20306;SDS011;10312;52.434;13.206;2023-06-22T14:36:17;5.32;;;4.00;;
20306;SDS011;10312;52.434;13.206;2023-06-22T14:38:44;4.82;;;3.80;;
20306;SDS011;10312;52.434;13.206;2023-06-22T14:41:13;5.40;;;3.80;;
20306;SDS011;10312;52.434;13.206;2023-06-22T14:43:46;4.63;;;3.95;;